createdAt,value
2019-05-26T00:02:20.366Z,12.70
2019-05-26T00:04:48.774Z,12.70
2019-05-26T00:07:29.659Z,12.50
2019-05-26T00:09:47.316Z,12.40
2019-05-26T00:12:16.118Z,12.40
2019-05-26T00:14:44.700Z,12.40
2019-05-26T00:17:13.101Z,12.40
2019-05-26T00:19:41.838Z,12.40
2019-05-26T00:22:10.240Z,12.40
2019-05-26T00:24:38.669Z,12.40
2019-05-26T00:27:07.400Z,12.30
2019-05-26T00:29:35.825Z,12.30
2019-05-26T00:32:04.362Z,12.30
2019-05-26T00:34:32.772Z,12.30
2019-05-26T00:37:01.437Z,12.30
2019-05-26T00:39:29.837Z,12.40
2019-05-26T00:41:58.249Z,12.60
2019-05-26T00:44:26.648Z,12.70
2019-05-26T00:46:55.061Z,12.80
2019-05-26T00:49:23.757Z,12.60
2019-05-26T00:51:52.450Z,12.70
2019-05-26T00:54:21.153Z,12.50
2019-05-26T00:56:49.573Z,12.50
2019-05-26T00:59:18.241Z,12.40
2019-05-26T01:01:46.653Z,12.40
2019-05-26T01:04:15.405Z,12.50
2019-05-26T01:06:44.086Z,12.40
2019-05-26T01:09:12.766Z,12.40
2019-05-26T01:11:41.453Z,12.30
2019-05-26T01:14:09.852Z,12.30
2019-05-26T01:16:38.526Z,12.20
2019-05-26T01:19:07.219Z,12.30
2019-05-26T01:21:35.629Z,12.20
2019-05-26T01:24:04.031Z,12.10
2019-05-26T01:26:32.765Z,12.10
2019-05-26T01:29:01.165Z,11.90
2019-05-26T01:31:29.577Z,11.80
2019-05-26T01:33:58.226Z,11.80
2019-05-26T01:36:26.636Z,11.80
2019-05-26T01:38:55.708Z,11.70
2019-05-26T01:41:24.118Z,11.70
2019-05-26T01:43:52.531Z,11.80
2019-05-26T01:46:21.262Z,11.80
2019-05-26T01:48:49.664Z,11.80
2019-05-26T01:51:18.073Z,11.80
2019-05-26T01:53:46.472Z,11.70
2019-05-26T01:56:14.924Z,11.80
2019-05-26T01:58:43.324Z,11.80
2019-05-26T02:01:11.736Z,11.90
2019-05-26T02:03:40.191Z,11.90
2019-05-26T02:06:08.921Z,11.80
2019-05-26T02:08:39.686Z,11.70
2019-05-26T02:11:07.465Z,11.60
2019-05-26T02:13:35.861Z,11.60
2019-05-26T02:16:04.627Z,11.60
2019-05-26T02:18:33.306Z,11.60
2019-05-26T02:21:01.720Z,11.50
2019-05-26T02:23:30.127Z,11.40
2019-05-26T02:25:58.920Z,11.40
2019-05-26T02:28:27.659Z,11.50
2019-05-26T02:30:56.072Z,11.60
2019-05-26T02:33:24.470Z,11.80
2019-05-26T02:35:53.208Z,11.70
2019-05-26T02:38:26.077Z,11.70
2019-05-26T02:40:52.127Z,11.60
2019-05-26T02:43:20.810Z,11.50
2019-05-26T02:45:49.219Z,11.40
2019-05-26T02:48:17.619Z,11.30
2019-05-26T02:50:46.035Z,11.40
2019-05-26T02:53:14.437Z,11.60
2019-05-26T02:55:43.149Z,11.60
2019-05-26T02:58:11.548Z,11.60
2019-05-26T03:00:42.669Z,11.50
2019-05-26T03:03:12.002Z,11.60
2019-05-26T03:05:43.349Z,11.70
2019-05-26T03:08:12.634Z,11.60
2019-05-26T03:10:41.811Z,11.40
2019-05-26T03:13:15.388Z,11.30
2019-05-26T03:15:46.185Z,11.30
2019-05-26T03:18:14.934Z,11.20
2019-05-26T03:20:44.397Z,11.20
2019-05-26T03:23:14.668Z,11.00
2019-05-26T03:25:43.166Z,11.00
2019-05-26T03:28:11.637Z,11.10
2019-05-26T03:30:40.043Z,11.10
2019-05-26T03:33:08.465Z,11.10
2019-05-26T03:35:36.865Z,11.00
2019-05-26T03:38:05.448Z,11.00
2019-05-26T03:40:34.176Z,11.00
2019-05-26T03:43:02.601Z,11.00
2019-05-26T03:45:39.879Z,11.10
2019-05-26T03:48:08.298Z,11.20
2019-05-26T03:50:36.708Z,11.20
2019-05-26T03:53:05.115Z,11.20
2019-05-26T03:55:33.589Z,11.40
2019-05-26T03:58:02.002Z,11.50
2019-05-26T04:00:30.398Z,11.70
2019-05-26T04:02:58.818Z,11.70
2019-05-26T04:05:27.520Z,11.60
2019-05-26T04:07:56.211Z,11.50
2019-05-26T04:10:24.608Z,11.50
2019-05-26T04:12:53.018Z,11.50
2019-05-26T04:15:21.421Z,11.50
2019-05-26T04:17:49.832Z,11.50
2019-05-26T04:20:18.557Z,11.50
2019-05-26T04:22:46.968Z,11.70
2019-05-26T04:25:15.818Z,11.70
2019-05-26T04:27:44.225Z,11.80
2019-05-26T04:30:12.629Z,11.80
2019-05-26T04:32:41.064Z,11.80
2019-05-26T04:35:09.757Z,12.00
2019-05-26T04:37:38.174Z,12.10
2019-05-26T04:40:25.152Z,12.10
2019-05-26T04:42:37.652Z,12.20
2019-05-26T04:45:10.001Z,12.40
2019-05-26T04:47:38.717Z,12.50
2019-05-26T04:50:07.566Z,12.60
2019-05-26T04:52:36.086Z,12.70
2019-05-26T04:55:09.706Z,12.90
2019-05-26T04:57:38.128Z,13.00
2019-05-26T05:00:07.241Z,13.10
2019-05-26T05:02:35.845Z,13.30
2019-05-26T05:05:07.323Z,13.30
2019-05-26T05:07:35.749Z,13.40
2019-05-26T05:10:06.007Z,13.50
2019-05-26T05:12:34.423Z,13.60
2019-05-26T05:15:03.839Z,13.60
2019-05-26T05:17:32.258Z,13.70
2019-05-26T05:20:01.005Z,13.70
2019-05-26T05:22:29.422Z,13.80
2019-05-26T05:24:58.171Z,13.80
2019-05-26T05:27:26.655Z,13.90
2019-05-26T05:29:55.352Z,14.00
2019-05-26T05:32:24.036Z,14.10
2019-05-26T05:34:52.437Z,14.20
2019-05-26T05:37:24.932Z,14.50
2019-05-26T05:39:51.245Z,14.60
2019-05-26T05:42:19.653Z,14.80
2019-05-26T05:44:48.061Z,14.70
2019-05-26T05:47:16.480Z,14.70
2019-05-26T05:49:44.890Z,14.80
2019-05-26T05:52:13.301Z,14.70
2019-05-26T05:54:41.709Z,14.60
2019-05-26T05:57:10.128Z,14.60
2019-05-26T05:59:38.798Z,14.60
2019-05-26T06:02:07.491Z,14.50
2019-05-26T06:04:35.881Z,14.60
2019-05-26T06:07:04.869Z,14.60
2019-05-26T06:09:33.283Z,14.60
2019-05-26T06:12:01.693Z,14.70
2019-05-26T06:14:30.105Z,14.70
2019-05-26T06:16:58.809Z,14.70
2019-05-26T06:19:27.510Z,14.70
2019-05-26T06:21:55.913Z,14.70
2019-05-26T06:24:24.338Z,14.80
2019-05-26T06:26:52.741Z,14.90
2019-05-26T06:29:21.156Z,14.90
2019-05-26T06:31:50.040Z,15.00
2019-05-26T06:34:18.613Z,15.00
2019-05-26T06:36:47.303Z,15.20
2019-05-26T06:39:15.993Z,15.10
2019-05-26T06:41:44.673Z,15.10
2019-05-26T06:44:13.364Z,15.20
2019-05-26T06:46:41.772Z,15.40
2019-05-26T06:49:10.184Z,15.40
2019-05-26T06:51:38.594Z,15.50
2019-05-26T06:54:07.305Z,15.70
2019-05-26T06:56:35.709Z,15.80
2019-05-26T06:59:04.785Z,15.80
2019-05-26T07:01:33.190Z,15.90
2019-05-26T07:04:01.611Z,16.00
2019-05-26T07:06:30.343Z,16.00
2019-05-26T07:08:58.831Z,16.10
2019-05-26T07:11:27.249Z,16.10
2019-05-26T07:13:55.660Z,16.30
2019-05-26T07:16:37.525Z,16.30
2019-05-26T07:18:54.522Z,16.30
2019-05-26T07:21:22.934Z,16.40
2019-05-26T07:23:51.346Z,16.30
2019-05-26T07:26:20.073Z,16.40
2019-05-26T07:28:48.545Z,16.40
2019-05-26T07:31:17.484Z,16.40
2019-05-26T07:33:46.029Z,16.40
2019-05-26T07:36:14.434Z,16.60
2019-05-26T07:38:43.206Z,16.70
2019-05-26T07:41:11.606Z,16.80
2019-05-26T07:43:40.017Z,16.80
2019-05-26T07:46:08.424Z,16.80
2019-05-26T07:48:36.845Z,16.90
2019-05-26T07:51:05.255Z,17.00
2019-05-26T07:53:33.681Z,17.10
2019-05-26T07:56:02.076Z,17.20
2019-05-26T07:58:30.776Z,17.20
2019-05-26T08:00:59.462Z,17.30
2019-05-26T08:03:27.873Z,17.30
2019-05-26T08:05:56.272Z,17.40
2019-05-26T08:08:24.689Z,17.50
2019-05-26T08:10:53.401Z,17.50
2019-05-26T08:13:22.088Z,17.70
2019-05-26T08:15:50.495Z,17.80
2019-05-26T08:18:18.913Z,17.80
2019-05-26T08:20:47.648Z,17.80
2019-05-26T08:23:16.102Z,17.90
2019-05-26T08:25:44.780Z,17.90
2019-05-26T08:28:13.208Z,17.90
2019-05-26T08:30:41.604Z,17.90
2019-05-26T15:22:53.581Z,20.90
2019-05-26T15:25:21.985Z,20.90
2019-05-26T15:27:50.391Z,20.90
2019-05-26T15:30:18.789Z,20.90
2019-05-26T15:32:47.205Z,20.90
2019-05-26T15:35:15.673Z,20.80
2019-05-26T15:37:44.081Z,20.80
2019-05-26T15:40:12.650Z,20.80
2019-05-26T15:42:41.058Z,20.80
2019-05-26T15:45:10.157Z,20.70
2019-05-26T15:47:38.564Z,20.70
2019-05-26T15:50:09.100Z,20.70
2019-05-26T15:52:37.857Z,20.70
2019-05-26T15:55:06.557Z,20.70
2019-05-26T15:57:35.037Z,20.60
2019-05-26T16:00:05.844Z,20.60
2019-05-26T16:02:34.545Z,20.60
2019-05-26T16:05:03.119Z,20.60
2019-05-26T16:07:31.525Z,20.50
2019-05-26T16:09:59.929Z,20.50
2019-05-26T16:12:29.406Z,20.50
2019-05-26T16:14:57.805Z,20.60
2019-05-26T16:17:26.491Z,20.60
2019-05-26T16:19:54.965Z,20.60
2019-05-26T16:22:23.372Z,20.60
2019-05-26T16:24:51.772Z,20.60
2019-05-26T16:27:20.182Z,20.70
2019-05-26T16:29:48.908Z,20.70
2019-05-26T16:32:19.012Z,20.70
2019-05-26T16:34:47.927Z,20.70
2019-05-26T16:37:16.391Z,20.70
2019-05-26T16:39:44.809Z,20.70
2019-05-26T16:42:13.473Z,20.70
2019-05-26T16:44:41.877Z,20.60
2019-05-26T16:47:10.545Z,20.60
2019-05-26T16:49:39.233Z,20.60
2019-05-26T16:52:07.928Z,20.60
2019-05-26T16:54:36.316Z,20.60
2019-05-26T16:57:05.208Z,20.60
2019-05-26T16:59:33.605Z,20.70
2019-05-26T17:02:02.045Z,20.70
2019-05-26T17:04:30.450Z,20.70
2019-05-26T17:06:58.861Z,20.70
2019-05-26T17:09:27.258Z,20.70
2019-05-26T17:11:55.692Z,20.70
2019-05-26T17:14:24.145Z,20.70
2019-05-26T17:16:52.878Z,20.60
2019-05-26T17:19:21.309Z,20.60
2019-05-26T17:21:49.716Z,20.60
2019-05-26T17:24:18.436Z,20.60
2019-05-26T17:26:46.850Z,20.60
2019-05-26T17:29:15.501Z,20.60
2019-05-26T17:31:44.197Z,20.60
2019-05-26T17:34:12.598Z,20.60
2019-05-26T17:36:41.007Z,20.60
2019-05-26T17:39:09.415Z,20.60
2019-05-26T17:41:37.875Z,20.60
2019-05-26T17:44:06.840Z,20.60
2019-05-26T17:46:35.616Z,20.60
2019-05-26T17:49:04.516Z,20.60
2019-05-26T17:51:33.170Z,20.50
2019-05-26T17:54:01.898Z,20.50
2019-05-26T17:56:30.308Z,20.40
2019-05-26T17:58:58.768Z,20.40
2019-05-26T18:01:27.449Z,20.40
2019-05-26T18:03:55.866Z,20.40
2019-05-26T18:06:24.269Z,20.40
2019-05-26T18:08:52.682Z,20.40
2019-05-26T18:11:21.094Z,20.40
2019-05-26T18:13:49.804Z,20.40
2019-05-26T18:16:18.413Z,20.40
2019-05-26T18:18:46.952Z,20.40
2019-05-26T18:21:15.425Z,20.30
2019-05-26T18:23:44.113Z,20.30
2019-05-26T18:26:12.521Z,20.20
2019-05-26T18:28:41.185Z,20.20
2019-05-26T18:31:09.589Z,20.20
2019-05-26T18:33:38.265Z,20.20
2019-05-26T18:36:06.693Z,20.20
2019-05-26T18:38:35.438Z,20.20
2019-05-26T18:41:04.325Z,20.20
2019-05-26T18:43:39.901Z,20.10
2019-05-26T18:46:09.085Z,20.10
2019-05-26T18:48:37.609Z,20.10
2019-05-26T18:51:06.018Z,20.00
2019-05-26T18:53:34.730Z,20.00
2019-05-26T18:56:03.133Z,20.00
2019-05-26T18:58:31.915Z,19.90
2019-05-26T19:01:00.323Z,19.90
2019-05-26T19:03:28.989Z,19.90
2019-05-26T19:05:57.387Z,19.90
2019-05-26T19:08:25.792Z,19.80
2019-05-26T19:10:54.209Z,19.80
2019-05-26T19:13:22.832Z,19.80
2019-05-26T19:15:51.229Z,19.80
2019-05-26T19:18:20.716Z,19.80
2019-05-26T19:20:49.707Z,19.80
2019-05-26T19:23:18.286Z,19.70
2019-05-26T19:25:46.977Z,19.70
2019-05-26T19:28:15.396Z,19.70
2019-05-26T19:30:45.754Z,19.70
2019-05-26T19:33:14.481Z,19.70
2019-05-26T19:35:42.882Z,19.70
2019-05-26T19:38:11.290Z,19.60
2019-05-26T19:40:40.245Z,19.60
2019-05-26T19:43:08.652Z,19.60
2019-05-26T19:45:37.122Z,19.60
2019-05-26T19:48:05.533Z,19.60
2019-05-26T19:50:34.390Z,19.60
2019-05-26T19:53:02.793Z,19.60
2019-05-26T19:55:31.202Z,19.60
2019-05-26T19:57:59.974Z,19.60
2019-05-26T20:00:28.641Z,19.50
2019-05-26T20:02:57.505Z,19.50
2019-05-26T20:05:26.212Z,19.50
2019-05-26T20:07:54.920Z,19.50
2019-05-26T20:10:23.708Z,19.50
2019-05-26T20:12:52.385Z,19.50
2019-05-26T20:15:21.383Z,19.50
2019-05-26T20:17:49.798Z,19.50
2019-05-26T20:20:20.180Z,19.40
2019-05-26T20:22:49.023Z,19.40
2019-05-26T20:25:17.685Z,19.40
2019-05-26T20:27:46.101Z,19.40
2019-05-26T20:30:15.032Z,19.30
2019-05-26T20:32:43.443Z,19.30
2019-05-26T20:35:12.018Z,19.30
2019-05-26T20:37:40.709Z,19.30
2019-05-26T20:40:10.090Z,19.20
2019-05-26T20:42:38.567Z,19.20
2019-05-26T20:45:08.205Z,19.10
2019-05-26T20:47:36.930Z,19.10
2019-05-26T20:50:08.257Z,19.10
2019-05-26T20:52:36.751Z,19.10
2019-05-26T20:55:06.558Z,19.10
2019-05-26T20:57:35.246Z,19.00
2019-05-26T21:00:06.829Z,19.00
2019-05-26T21:02:35.585Z,19.00
2019-05-26T21:05:05.953Z,18.90
2019-05-26T21:07:34.350Z,18.90
2019-05-26T21:10:02.789Z,18.90
2019-05-26T21:12:31.496Z,18.80
2019-05-26T21:15:01.183Z,18.70
2019-05-26T21:17:30.050Z,18.80
2019-05-26T21:19:58.466Z,18.70
2019-05-26T21:22:26.933Z,18.70
2019-05-26T21:24:55.456Z,18.60
2019-05-26T21:27:23.863Z,18.60
2019-05-26T21:29:52.616Z,18.60
2019-05-26T21:32:21.309Z,18.50
2019-05-26T21:34:49.720Z,18.50
2019-05-26T21:37:18.122Z,18.50
2019-05-26T21:39:46.561Z,18.40
2019-05-26T21:42:16.115Z,18.40
2019-05-26T21:44:44.660Z,18.40
2019-05-26T21:47:13.062Z,18.40
2019-05-26T21:49:41.813Z,18.40
2019-05-26T21:52:10.216Z,18.40
2019-05-26T21:54:41.210Z,18.40
2019-05-26T21:57:08.742Z,18.40
2019-05-26T21:59:37.490Z,18.40
2019-05-26T22:02:06.052Z,18.40
2019-05-26T22:04:34.460Z,18.40
2019-05-26T22:07:02.864Z,18.40
2019-05-26T22:09:31.452Z,18.40
2019-05-26T22:11:59.855Z,18.30
2019-05-26T22:14:28.262Z,18.30
2019-05-26T22:16:56.737Z,18.30
2019-05-26T22:19:25.140Z,18.20
2019-05-26T22:21:53.541Z,18.20
2019-05-26T22:24:21.966Z,18.20
2019-05-26T22:26:50.629Z,18.20
2019-05-26T22:29:19.050Z,18.10
2019-05-26T22:31:47.793Z,18.10
2019-05-26T22:34:16.206Z,18.10
2019-05-26T22:36:44.881Z,18.00
2019-05-26T22:39:13.284Z,18.00
2019-05-26T22:41:41.683Z,18.00
2019-05-26T22:44:10.088Z,17.90
2019-05-26T22:46:38.496Z,17.90
2019-05-26T22:49:06.901Z,17.90
2019-05-26T22:51:35.302Z,17.90
2019-05-26T22:54:03.722Z,17.90
2019-05-26T22:56:32.432Z,17.90
2019-05-26T22:59:01.126Z,17.80
2019-05-26T23:01:29.842Z,17.80
2019-05-26T23:03:58.257Z,17.80
2019-05-26T23:06:26.992Z,17.80
2019-05-26T23:08:55.407Z,17.70
2019-05-26T23:11:24.061Z,17.70
2019-05-26T23:13:52.757Z,17.70
2019-05-26T23:16:21.437Z,17.70
2019-05-26T23:18:49.847Z,17.70
2019-05-26T23:21:18.246Z,17.60
2019-05-26T23:23:46.652Z,17.60
2019-05-26T23:26:15.052Z,17.60
2019-05-26T23:28:43.761Z,17.50
2019-05-26T23:31:12.234Z,17.50
2019-05-26T23:33:40.650Z,17.50
2019-05-26T23:36:09.124Z,17.50
2019-05-26T23:38:37.542Z,17.50
2019-05-26T23:41:05.937Z,17.40
2019-05-26T23:43:34.673Z,17.40
2019-05-26T23:46:03.357Z,17.40
2019-05-26T23:48:32.048Z,17.40
2019-05-26T23:51:00.457Z,17.40
2019-05-26T23:53:28.860Z,17.30
2019-05-26T23:55:57.616Z,17.40
2019-05-26T23:58:26.011Z,17.40
